Portada
METAR-TAF:

METAR-TAF

Aeropuertos :

Aeropuerto Internacional de Pohnpei

Pohnpei, Micronesia

latitud: 06-59N, longitud: 158-12E, altitud: 2 m

Observación

El informe se hizo hace 9 horas y 4 minutos, a las 03:50 UTC
Viento 7 kt del oeste-suroeste
Temperatura 30°C
Humedad 79%
Presión 1007 hPa
Visibilidad: 24.1 km
Nubes dispersas a una altura de 1800 ft
Cielo nuboso a una altura de 13000 ft
Cielo nuboso a una altura de 30000 ft

METAR: PTPN 210350Z 24007KT 15SM SCT018 BKN130 BKN300 30/26 A2973 RMK LAST

Hora: 23:54 (12:54 UTC)

Pronóstico

El informe se hizo hace 13 horas y 14 minutos, a las 23:40 UTC
Pronóstico válido del 21 a las 00 UTC al 21 a las 24 UTC
Viento 11 kt del sur
Visibilidad: 10 km
Nubes dispersas a una altura de 1800 ft
Cielo nuboso a una altura de 14000 ft
chaparrones en las proximidades

TAF: PTPN 202340Z 2100/2124 18011KT P6SM VCSH SCT018 BKN140

Observaciones y pronósticos meteorológicos de más de 4000 aeropuertos (mensajes METAR y TAF).

Los puntos amarillos y rojos representan las estaciones disponibles.

Ponga el ratón en el punto deseado para ver el nombre de la estación.

Haga clic para ver las observaciones y los pronósticos meteorológicos.

Para cambiar el mapa : haga clic en los botones verdes con una cruz de color negro para hacer un zoom, en el botón verde con un guión para alejar o en las flechas verdes para mapas adyacentes.


METAR-TAF: